createdAt,value
2023-09-23T00:02:10.683Z,3.80
2023-09-23T00:04:38.377Z,4.07
2023-09-23T00:07:07.420Z,3.13
2023-09-23T00:09:37.721Z,3.15
2023-09-23T00:12:06.637Z,4.15
2023-09-23T00:14:34.086Z,3.95
2023-09-23T00:17:01.552Z,4.13
2023-09-23T00:19:28.866Z,4.07
2023-09-23T00:21:56.017Z,3.55
2023-09-23T00:24:25.368Z,3.80
2023-09-23T00:26:54.122Z,4.25
2023-09-23T00:29:26.199Z,3.60
2023-09-23T00:31:55.759Z,3.95
2023-09-23T00:34:24.710Z,3.88
2023-09-23T00:36:52.550Z,4.13
2023-09-23T00:39:20.000Z,3.92
2023-09-23T00:41:49.069Z,3.67
2023-09-23T00:44:16.652Z,4.22
2023-09-23T00:46:45.404Z,4.20
2023-09-23T00:49:14.542Z,3.63
2023-09-23T00:51:42.390Z,4.03
2023-09-23T00:54:09.705Z,3.25
2023-09-23T00:56:37.716Z,4.22
2023-09-23T00:59:08.057Z,3.95
2023-09-23T01:01:36.595Z,4.22
2023-09-23T01:04:06.021Z,4.00
2023-09-23T01:06:34.163Z,3.65
2023-09-23T01:09:01.625Z,4.82
2023-09-23T01:11:31.572Z,3.70
2023-09-23T01:13:58.762Z,3.45
2023-09-23T01:16:28.062Z,3.45
2023-09-23T01:18:55.412Z,4.20
2023-09-23T01:21:24.371Z,3.65
2023-09-23T01:23:54.653Z,3.45
2023-09-23T01:26:22.518Z,4.10
2023-09-23T01:28:50.535Z,3.65
2023-09-23T01:31:22.729Z,3.53
2023-09-23T01:33:52.134Z,3.45
2023-09-23T01:36:19.732Z,3.83
2023-09-23T01:38:47.607Z,3.90
2023-09-23T01:41:19.569Z,3.38
2023-09-23T01:43:50.159Z,4.75
2023-09-23T01:46:20.540Z,3.83
2023-09-23T01:48:47.887Z,4.00
2023-09-23T01:51:17.925Z,3.70
2023-09-23T01:53:45.410Z,3.75
2023-09-23T01:56:13.653Z,3.47
2023-09-23T01:58:43.261Z,3.75
2023-09-23T02:01:10.706Z,3.67
2023-09-23T02:03:38.191Z,3.83
2023-09-23T02:06:05.682Z,4.18
2023-09-23T02:08:32.962Z,3.75
2023-09-23T02:11:01.171Z,3.70
2023-09-23T02:13:29.572Z,3.35
2023-09-23T02:16:00.042Z,3.60
2023-09-23T02:18:27.799Z,3.78
2023-09-23T02:20:55.490Z,4.15
2023-09-23T02:23:23.448Z,3.17
2023-09-23T02:25:51.816Z,3.22
2023-09-23T02:28:19.398Z,3.42
2023-09-23T02:30:46.655Z,3.60
2023-09-23T02:33:15.594Z,3.85
2023-09-23T02:35:43.531Z,3.28
2023-09-23T02:38:11.539Z,3.33
2023-09-23T02:40:41.695Z,3.40
2023-09-23T02:43:08.924Z,3.70
2023-09-23T02:45:37.726Z,3.58
2023-09-23T02:48:05.824Z,3.40
2023-09-23T02:50:38.224Z,3.40
2023-09-23T02:53:05.620Z,3.55
2023-09-23T02:55:32.852Z,2.72
2023-09-23T02:58:00.280Z,3.25
2023-09-23T03:00:31.703Z,3.42
2023-09-23T03:03:03.271Z,3.38
2023-09-23T03:05:31.457Z,4.45
2023-09-23T03:08:03.109Z,3.58
2023-09-23T03:10:50.706Z,3.45
2023-09-23T03:13:18.827Z,3.47
2023-09-23T03:15:54.386Z,3.25
2023-09-23T03:18:35.299Z,3.33
2023-09-23T03:21:05.338Z,3.47
2023-09-23T03:23:35.306Z,3.72
2023-09-23T03:26:03.134Z,3.58
2023-09-23T03:28:30.396Z,2.83
2023-09-23T03:31:00.688Z,3.47
2023-09-23T03:33:31.315Z,3.75
2023-09-23T03:35:58.656Z,3.28
2023-09-23T03:38:27.567Z,3.88
2023-09-23T03:41:01.029Z,3.95
2023-09-23T03:43:29.008Z,3.70
2023-09-23T03:45:57.330Z,3.83
2023-09-23T03:48:24.728Z,3.47
2023-09-23T03:50:54.156Z,3.30
2023-09-23T03:53:24.904Z,4.05
2023-09-23T03:55:57.084Z,2.17
2023-09-23T03:58:26.765Z,3.28
2023-09-23T04:00:58.234Z,3.38
2023-09-23T04:03:25.719Z,2.33
2023-09-23T04:05:56.726Z,3.40
2023-09-23T04:08:24.815Z,2.63
2023-09-23T04:10:52.115Z,2.97
2023-09-23T04:13:19.907Z,3.05
2023-09-23T04:15:48.783Z,3.22
2023-09-23T04:18:15.998Z,2.85
2023-09-23T04:20:45.379Z,2.97
2023-09-23T04:23:12.772Z,3.08
2023-09-23T04:25:40.162Z,3.28
2023-09-23T04:28:07.423Z,2.85
2023-09-23T04:30:36.287Z,2.88
2023-09-23T04:33:05.795Z,2.60
2023-09-23T04:35:33.261Z,2.72
2023-09-23T04:38:00.522Z,2.95
2023-09-23T04:40:28.035Z,2.80
2023-09-23T04:42:55.473Z,3.10
2023-09-23T04:45:22.824Z,3.35
2023-09-23T04:47:53.009Z,3.50
2023-09-23T04:50:24.736Z,2.60
2023-09-23T04:52:52.547Z,3.08
2023-09-23T04:55:20.739Z,2.97
2023-09-23T04:57:48.363Z,3.30
2023-09-23T05:00:20.113Z,3.05
2023-09-23T05:05:17.990Z,3.17
2023-09-23T05:07:46.787Z,3.50
2023-09-23T05:10:14.856Z,2.95
2023-09-23T05:12:42.459Z,2.80
2023-09-23T05:15:11.405Z,3.08
2023-09-23T05:17:38.856Z,3.28
2023-09-23T05:20:15.712Z,3.53
2023-09-23T05:22:43.911Z,3.42
2023-09-23T05:25:15.537Z,2.45
2023-09-23T05:27:45.825Z,2.65
2023-09-23T05:30:13.461Z,3.13
2023-09-23T05:32:41.104Z,3.05
2023-09-23T05:35:12.722Z,2.75
2023-09-23T05:37:41.462Z,2.90
2023-09-23T05:40:25.168Z,2.30
2023-09-23T05:42:54.588Z,2.72
2023-09-23T05:45:26.339Z,2.53
2023-09-23T05:47:54.968Z,3.00
2023-09-23T05:50:23.087Z,2.83
2023-09-23T05:52:50.881Z,3.05
2023-09-23T05:55:18.427Z,2.78
2023-09-23T05:57:46.995Z,2.85
2023-09-23T06:00:16.885Z,2.47
2023-09-23T06:02:46.712Z,2.97
2023-09-23T06:05:15.510Z,2.85
2023-09-23T06:07:43.461Z,2.67
2023-09-23T06:10:12.663Z,2.45
2023-09-23T06:12:40.697Z,2.78
2023-09-23T06:15:12.159Z,3.47
2023-09-23T06:17:41.092Z,2.63
2023-09-23T06:20:10.269Z,2.83
2023-09-23T06:22:37.627Z,2.90
2023-09-23T06:25:06.057Z,2.88
2023-09-23T06:27:34.102Z,2.53
2023-09-23T06:30:01.527Z,2.78
2023-09-23T06:32:33.295Z,3.03
2023-09-23T06:35:02.433Z,3.00
2023-09-23T06:37:32.181Z,2.70
2023-09-23T06:39:59.640Z,2.05
2023-09-23T06:42:27.139Z,3.05
2023-09-23T06:44:54.419Z,2.70
2023-09-23T06:47:22.022Z,2.28
2023-09-23T06:49:49.510Z,2.85
2023-09-23T06:52:18.125Z,2.35
2023-09-23T06:54:45.736Z,2.38
2023-09-23T06:57:13.217Z,2.42
2023-09-23T06:59:40.617Z,2.30
2023-09-23T07:02:07.879Z,2.78
2023-09-23T07:04:37.385Z,2.47
2023-09-23T07:07:04.605Z,2.97
2023-09-23T07:09:33.556Z,2.30
2023-09-23T07:12:00.775Z,3.03
2023-09-23T07:14:28.209Z,3.38
2023-09-23T07:16:57.243Z,3.15
2023-09-23T07:19:24.492Z,2.40
2023-09-23T07:21:52.852Z,3.15
2023-09-23T07:24:20.093Z,2.10
2023-09-23T07:26:48.799Z,4.28
2023-09-23T07:29:16.159Z,2.78
2023-09-23T07:31:43.541Z,2.80
2023-09-23T07:34:11.001Z,3.15
2023-09-23T07:36:38.289Z,2.85
2023-09-23T07:39:05.545Z,3.03
2023-09-23T07:41:33.091Z,3.17
2023-09-23T07:44:01.794Z,2.55
2023-09-23T07:46:29.087Z,2.90
2023-09-23T07:48:56.685Z,3.03
2023-09-23T07:51:24.088Z,3.30
2023-09-23T07:53:52.423Z,3.03
2023-09-23T07:56:19.991Z,3.95
2023-09-23T07:58:47.388Z,3.17
2023-09-23T08:01:16.106Z,3.58
2023-09-23T08:03:43.423Z,2.35
2023-09-23T08:06:10.698Z,2.38
2023-09-23T08:08:37.948Z,2.78
2023-09-23T08:11:06.398Z,2.85
2023-09-23T08:13:33.675Z,2.58
2023-09-23T08:16:01.205Z,2.80
2023-09-23T08:18:29.992Z,1.98
2023-09-23T08:20:57.884Z,2.45
2023-09-23T08:23:25.694Z,2.70
2023-09-23T08:25:53.368Z,2.85
2023-09-23T08:28:20.790Z,2.88
2023-09-23T08:30:49.319Z,3.05
2023-09-23T08:33:16.700Z,2.53
2023-09-23T08:35:48.640Z,2.40
2023-09-23T08:38:16.289Z,2.55
2023-09-23T08:40:45.834Z,2.67
2023-09-23T08:43:13.368Z,1.63
2023-09-23T08:45:44.572Z,2.15
2023-09-23T08:48:14.502Z,2.58
2023-09-23T08:50:48.021Z,2.13
2023-09-23T08:53:17.247Z,2.67
2023-09-23T08:55:46.208Z,1.95
2023-09-23T08:58:13.798Z,2.45
2023-09-23T09:00:47.069Z,2.03
2023-09-23T09:03:15.199Z,2.10
2023-09-23T09:05:44.519Z,2.17
2023-09-23T09:08:12.070Z,2.53
2023-09-23T09:10:43.624Z,1.58
2023-09-23T09:15:39.128Z,2.05
2023-09-23T09:18:07.091Z,2.88
2023-09-23T09:20:35.232Z,2.08
2023-09-23T09:23:02.892Z,2.28
2023-09-23T09:25:32.223Z,2.20
2023-09-23T09:28:01.023Z,2.45
2023-09-23T09:30:28.344Z,2.60
2023-09-23T09:33:00.603Z,2.15
2023-09-23T09:35:28.358Z,2.20
2023-09-23T09:38:11.198Z,1.98
2023-09-23T09:40:45.366Z,2.42
2023-09-23T09:43:14.876Z,1.95
2023-09-23T09:45:44.237Z,2.15
2023-09-23T09:48:14.042Z,1.83
2023-09-23T09:50:43.931Z,2.53
2023-09-23T09:53:11.240Z,2.35
2023-09-23T09:55:39.451Z,2.53
2023-09-23T09:58:06.664Z,2.22
2023-09-23T10:00:45.003Z,2.15
2023-09-23T10:03:14.618Z,2.28
2023-09-23T10:05:45.300Z,2.22
2023-09-23T10:08:21.238Z,2.30
2023-09-23T10:10:50.359Z,1.90
2023-09-23T10:13:19.700Z,1.63
2023-09-23T10:15:48.923Z,1.90
2023-09-23T10:18:19.135Z,1.52
2023-09-23T10:20:49.727Z,1.90
2023-09-23T10:23:19.224Z,1.95
2023-09-23T10:25:49.791Z,2.13
2023-09-23T10:28:24.474Z,1.92
2023-09-23T10:31:00.673Z,1.45
2023-09-23T10:33:30.352Z,1.75
2023-09-23T10:35:58.262Z,1.35
2023-09-23T10:38:27.616Z,1.80
2023-09-23T10:40:56.436Z,1.85
2023-09-23T10:43:23.939Z,2.10
2023-09-23T10:45:53.913Z,1.55
2023-09-23T10:48:22.718Z,1.80
2023-09-23T10:50:52.307Z,1.95
2023-09-23T10:53:22.593Z,1.55
2023-09-23T10:55:53.501Z,2.15
2023-09-23T10:58:21.310Z,2.03
2023-09-23T11:00:49.686Z,2.08
2023-09-23T11:03:22.844Z,1.35
2023-09-23T11:05:52.408Z,1.63
2023-09-23T11:08:19.899Z,2.28
2023-09-23T11:10:50.638Z,1.95
2023-09-23T11:13:18.179Z,1.65
2023-09-23T11:15:46.948Z,1.80
2023-09-23T11:18:17.211Z,1.92
2023-09-23T11:20:46.652Z,2.00
2023-09-23T11:23:15.977Z,1.65
2023-09-23T11:25:46.466Z,1.55
2023-09-23T11:28:18.752Z,2.03
2023-09-23T11:30:46.105Z,2.10
2023-09-23T11:33:14.129Z,2.35
2023-09-23T11:35:43.213Z,2.35
2023-09-23T11:38:11.272Z,1.45
2023-09-23T11:40:40.131Z,1.75
2023-09-23T11:43:07.966Z,2.47
2023-09-23T11:45:36.094Z,1.95
2023-09-23T11:48:09.009Z,2.00
2023-09-23T11:50:37.564Z,2.20
2023-09-23T11:53:05.674Z,2.33
2023-09-23T11:55:34.521Z,1.38
2023-09-23T11:58:03.700Z,1.30
2023-09-23T12:00:31.148Z,2.17
2023-09-23T12:02:58.743Z,1.80
2023-09-23T12:05:31.016Z,2.20
2023-09-23T12:08:00.379Z,2.30
2023-09-23T12:10:29.284Z,1.65
2023-09-23T12:13:04.832Z,2.70
2023-09-23T12:15:35.615Z,2.05
2023-09-23T12:18:04.150Z,2.25
2023-09-23T12:20:33.574Z,1.73
2023-09-23T12:23:02.155Z,2.10
2023-09-23T12:25:31.410Z,1.95
2023-09-23T12:27:59.016Z,1.83
2023-09-23T12:30:26.361Z,2.00
2023-09-23T12:32:55.266Z,1.98
2023-09-23T12:35:22.575Z,1.83
2023-09-23T12:37:50.072Z,2.15
2023-09-23T12:40:17.545Z,1.67
2023-09-23T12:42:44.918Z,1.85
2023-09-23T12:45:13.307Z,1.55
2023-09-23T12:47:56.110Z,2.13
2023-09-23T12:50:26.872Z,2.25
2023-09-23T12:52:55.110Z,1.52
2023-09-23T12:55:22.744Z,2.20
2023-09-23T12:57:50.130Z,2.33
2023-09-23T13:00:18.007Z,2.03
2023-09-23T13:02:45.639Z,2.03
2023-09-23T13:05:12.979Z,2.58
2023-09-23T13:07:41.642Z,2.20
2023-09-23T13:10:16.091Z,1.85
2023-09-23T13:12:45.438Z,2.47
2023-09-23T13:15:13.599Z,2.05
2023-09-23T13:17:41.041Z,1.90
2023-09-23T13:20:09.316Z,2.30
2023-09-23T13:22:37.100Z,2.30
2023-09-23T13:25:06.995Z,2.08
2023-09-23T13:27:34.522Z,2.65
2023-09-23T13:30:01.993Z,2.17
2023-09-23T13:32:32.460Z,1.80
2023-09-23T13:35:00.039Z,1.67
2023-09-23T13:37:27.321Z,2.20
2023-09-23T13:39:56.046Z,1.75
2023-09-23T13:42:24.718Z,2.22
2023-09-23T13:44:51.971Z,2.17
2023-09-23T13:47:19.346Z,2.35
2023-09-23T13:49:46.640Z,2.40
2023-09-23T13:52:13.991Z,2.30
2023-09-23T13:54:41.342Z,2.75
2023-09-23T13:57:08.556Z,2.40
2023-09-23T13:59:37.173Z,2.70
2023-09-23T14:02:06.033Z,2.45
2023-09-23T14:04:33.336Z,2.50
2023-09-23T14:07:00.611Z,2.83
2023-09-23T14:09:29.243Z,2.35
2023-09-23T14:11:57.482Z,2.08
2023-09-23T14:14:24.840Z,1.80
2023-09-23T14:16:53.543Z,1.95
2023-09-23T14:19:21.332Z,2.38
2023-09-23T14:21:48.620Z,1.95
2023-09-23T14:24:15.830Z,2.03
2023-09-23T14:26:43.397Z,2.25
2023-09-23T14:29:10.839Z,2.25
2023-09-23T14:31:38.149Z,2.22
2023-09-23T14:34:08.175Z,2.17
2023-09-23T14:36:35.412Z,2.10
2023-09-23T14:39:05.068Z,1.83
2023-09-23T14:41:36.379Z,2.88
2023-09-23T14:44:04.490Z,1.90
2023-09-23T14:46:32.285Z,2.20
2023-09-23T14:48:59.699Z,1.98
2023-09-23T14:51:28.486Z,1.73
2023-09-23T14:53:55.739Z,2.40
2023-09-23T14:56:23.007Z,2.20
2023-09-23T14:58:50.895Z,2.30
2023-09-23T15:01:18.357Z,2.45
2023-09-23T15:03:45.965Z,2.67
2023-09-23T15:06:13.421Z,2.17
2023-09-23T15:08:57.740Z,2.38
2023-09-23T15:11:29.192Z,2.08
2023-09-23T15:13:57.213Z,3.15
2023-09-23T15:16:24.669Z,3.55
2023-09-23T15:18:52.245Z,2.80
2023-09-23T15:21:19.526Z,3.38
2023-09-23T15:23:48.306Z,3.75
2023-09-23T15:26:15.751Z,3.30
2023-09-23T15:28:43.025Z,3.88
2023-09-23T15:31:10.816Z,3.60
2023-09-23T15:33:38.221Z,3.28
2023-09-23T15:36:06.067Z,3.83
2023-09-23T15:38:33.736Z,3.50
2023-09-23T15:41:02.507Z,3.38
2023-09-23T15:43:29.926Z,3.85
2023-09-23T15:46:02.947Z,3.53
2023-09-23T15:48:30.466Z,3.67
2023-09-23T15:51:08.130Z,3.55
2023-09-23T15:53:35.423Z,3.97
2023-09-23T15:56:08.486Z,4.00
2023-09-23T15:58:36.122Z,4.22
2023-09-23T16:01:05.517Z,4.13
2023-09-23T16:03:33.558Z,3.88
2023-09-23T16:06:01.297Z,4.13
2023-09-23T16:08:28.615Z,4.25
2023-09-23T16:10:56.129Z,4.25
2023-09-23T16:13:25.197Z,4.55
2023-09-23T16:15:52.523Z,5.57
2023-09-23T16:18:22.982Z,4.20
2023-09-23T16:20:51.857Z,4.13
2023-09-23T16:23:19.908Z,4.72
2023-09-23T16:25:47.417Z,4.68
2023-09-23T16:28:14.866Z,5.60
2023-09-23T16:30:43.605Z,4.22
2023-09-23T16:33:12.151Z,3.72
2023-09-23T16:35:39.635Z,4.30
2023-09-23T16:38:08.082Z,4.28
2023-09-23T16:40:36.046Z,4.88
2023-09-23T16:43:03.505Z,4.15
2023-09-23T16:45:30.825Z,3.55
2023-09-23T16:47:59.758Z,4.45
2023-09-23T16:50:27.332Z,4.65
2023-09-23T16:52:54.919Z,4.32
2023-09-23T16:55:22.225Z,3.38
2023-09-23T16:57:49.409Z,4.32
2023-09-23T17:00:18.365Z,3.88
2023-09-23T17:02:46.121Z,4.43
2023-09-23T17:05:15.421Z,3.90
2023-09-23T17:07:42.818Z,3.97
2023-09-23T17:10:10.832Z,3.58
2023-09-23T17:12:38.425Z,3.65
2023-09-23T17:15:06.927Z,4.40
2023-09-23T17:17:34.943Z,3.92
2023-09-23T17:20:02.683Z,3.60
2023-09-23T17:22:33.128Z,3.63
2023-09-23T17:25:01.304Z,3.20
2023-09-23T17:27:30.903Z,3.10
2023-09-23T17:29:58.192Z,2.92
2023-09-23T17:32:25.522Z,3.45
2023-09-23T17:34:52.905Z,3.40
2023-09-23T17:37:21.201Z,3.50
2023-09-23T17:39:49.799Z,3.33
2023-09-23T17:42:17.140Z,3.22
2023-09-23T17:44:46.778Z,4.28
2023-09-23T17:47:14.663Z,3.70
2023-09-23T17:49:41.925Z,4.22
2023-09-23T17:52:09.525Z,5.90
2023-09-23T17:54:36.922Z,4.60
2023-09-23T17:57:05.562Z,4.53
2023-09-23T17:59:32.947Z,3.47
2023-09-23T18:02:00.377Z,4.03
2023-09-23T18:04:27.799Z,3.60
2023-09-23T18:06:55.209Z,4.70
2023-09-23T18:09:22.597Z,5.63
2023-09-23T18:11:50.977Z,3.05
2023-09-23T18:14:19.723Z,3.63
2023-09-23T18:16:47.215Z,3.25
2023-09-23T18:19:14.522Z,3.30
2023-09-23T18:21:43.507Z,3.10
2023-09-23T18:24:11.586Z,3.00
2023-09-23T18:26:39.123Z,3.30
2023-09-23T18:29:06.600Z,3.28
2023-09-23T18:31:35.272Z,3.70
2023-09-23T18:34:02.711Z,3.28
2023-09-23T18:36:29.977Z,3.88
2023-09-23T18:38:57.281Z,4.03
2023-09-23T18:41:24.519Z,3.85
2023-09-23T18:43:51.781Z,3.65
2023-09-23T18:46:20.453Z,3.85
2023-09-23T18:48:50.148Z,4.07
2023-09-23T18:51:17.413Z,3.60
2023-09-23T18:53:44.714Z,4.18
2023-09-23T18:56:12.050Z,4.20
2023-09-23T18:58:39.469Z,4.63
2023-09-23T19:01:06.790Z,4.78
2023-09-23T19:03:34.363Z,4.03
2023-09-23T19:06:03.233Z,4.35
2023-09-23T19:08:30.963Z,4.07
2023-09-23T19:10:58.215Z,3.65
2023-09-23T19:13:25.489Z,4.80
2023-09-23T19:15:52.768Z,4.25
2023-09-23T19:18:20.333Z,3.33
2023-09-23T19:20:47.844Z,3.45
2023-09-23T19:23:16.621Z,3.22
2023-09-23T19:25:43.950Z,3.85
2023-09-23T19:28:11.295Z,4.18
2023-09-23T19:30:38.952Z,3.42
2023-09-23T19:33:06.501Z,3.05
2023-09-23T19:35:36.810Z,3.85
2023-09-23T19:38:04.781Z,4.03
2023-09-23T19:40:34.982Z,3.13
2023-09-23T19:43:02.471Z,3.40
2023-09-23T19:45:29.861Z,2.47
2023-09-23T19:47:59.365Z,3.00
2023-09-23T19:50:26.897Z,3.22
2023-09-23T19:52:54.115Z,3.35
2023-09-23T19:55:22.455Z,3.28
2023-09-23T19:57:51.134Z,3.28
2023-09-23T20:00:18.851Z,2.95
2023-09-23T20:02:46.142Z,2.80
2023-09-23T20:05:13.639Z,3.63
2023-09-23T20:07:41.111Z,2.92
2023-09-23T20:10:11.635Z,2.70
2023-09-23T20:12:39.007Z,3.17
2023-09-23T20:15:09.158Z,4.03
2023-09-23T20:17:37.254Z,3.20
2023-09-23T20:20:11.443Z,3.47
2023-09-23T20:22:38.801Z,2.92
2023-09-23T20:25:06.878Z,2.80
2023-09-23T20:27:34.504Z,3.13
2023-09-23T20:30:07.171Z,3.38
2023-09-23T20:32:39.804Z,3.83
2023-09-23T20:35:12.235Z,2.75
2023-09-23T20:37:40.177Z,2.83
2023-09-23T20:40:09.868Z,2.15
2023-09-23T20:42:37.403Z,3.05
2023-09-23T20:45:05.844Z,2.97
2023-09-23T20:47:34.990Z,1.67
2023-09-23T20:50:05.704Z,3.28
2023-09-23T20:52:34.386Z,2.67
2023-09-23T20:55:01.745Z,2.78
2023-09-23T20:57:31.935Z,2.97
2023-09-23T20:59:59.174Z,2.70
2023-09-23T21:02:26.657Z,3.33
2023-09-23T21:04:54.015Z,2.55
2023-09-23T21:07:22.569Z,3.10
2023-09-23T21:09:51.269Z,2.63
2023-09-23T21:12:18.608Z,2.72
2023-09-23T21:14:45.953Z,2.13
2023-09-23T21:17:13.375Z,2.13
2023-09-23T21:19:41.031Z,1.70
2023-09-23T21:22:08.614Z,2.50
2023-09-23T21:24:37.279Z,2.45
2023-09-23T21:27:04.549Z,2.25
2023-09-23T21:29:31.942Z,2.15
2023-09-23T21:31:59.515Z,1.80
2023-09-23T21:34:27.125Z,2.70
2023-09-23T21:36:54.535Z,2.20
2023-09-23T21:39:21.946Z,2.38
2023-09-23T21:41:51.670Z,2.83
2023-09-23T21:44:19.298Z,2.30
2023-09-23T21:46:46.626Z,2.08
2023-09-23T21:49:13.840Z,2.47
2023-09-23T21:51:41.126Z,2.55
2023-09-23T21:54:10.794Z,2.92
2023-09-23T21:56:44.368Z,2.30
2023-09-23T21:59:13.955Z,2.92
2023-09-23T22:01:41.601Z,1.95
2023-09-23T22:04:09.131Z,2.40
2023-09-23T22:06:37.196Z,2.22
2023-09-23T22:09:04.963Z,2.67
2023-09-23T22:11:32.754Z,2.65
2023-09-23T22:14:00.989Z,2.90
2023-09-23T22:16:29.546Z,2.95
2023-09-23T22:18:57.540Z,2.00
2023-09-23T22:21:24.854Z,2.58
2023-09-23T22:23:54.978Z,2.50
2023-09-23T22:26:22.359Z,2.90
2023-09-23T22:28:50.053Z,2.63
2023-09-23T22:31:17.409Z,2.63
2023-09-23T22:33:46.242Z,2.30
2023-09-23T22:36:13.771Z,2.60
2023-09-23T22:38:41.019Z,3.03
2023-09-23T22:41:08.257Z,2.42
2023-09-23T22:43:35.486Z,2.60
2023-09-23T22:46:02.834Z,2.42
2023-09-23T22:48:30.339Z,2.30
2023-09-23T22:50:59.383Z,2.75
2023-09-23T22:53:27.407Z,2.67
2023-09-23T22:55:56.315Z,2.35
2023-09-23T22:58:23.683Z,2.45
2023-09-23T23:00:51.687Z,1.77
2023-09-23T23:03:20.210Z,1.95
2023-09-23T23:05:47.742Z,2.53
2023-09-23T23:08:16.675Z,2.60
2023-09-23T23:10:44.118Z,2.10
2023-09-23T23:13:11.389Z,2.90
2023-09-23T23:15:40.412Z,2.88
2023-09-23T23:18:08.324Z,3.53
2023-09-23T23:20:36.065Z,2.30
2023-09-23T23:23:04.161Z,2.30
2023-09-23T23:25:37.212Z,2.47
2023-09-23T23:28:05.637Z,2.90
2023-09-23T23:30:33.299Z,2.10
2023-09-23T23:33:00.816Z,2.65
2023-09-23T23:35:29.186Z,2.67
2023-09-23T23:37:56.608Z,2.55
2023-09-23T23:40:24.795Z,2.42
2023-09-23T23:42:53.609Z,2.67
2023-09-23T23:45:22.410Z,2.10
2023-09-23T23:47:54.594Z,2.45
2023-09-23T23:50:24.018Z,2.50
2023-09-23T23:52:51.438Z,2.45
2023-09-23T23:55:19.609Z,2.60
2023-09-23T23:57:47.245Z,2.40
